Time;durP1;ratioP1;P1;durP2;ratioP2;P2;SDS_P1;SDS_P2;PMS_P1;PMS_P2;Temp;Humidity;BMP_temperature;BMP_pressure;BME280_temperature;BME280_humidity;BME280_pressure;Samples;Min_cycle;Max_cycle;Signal;HPM_P1;HPM_P2
2022/06/24 00:02:00;;;;;;;;;;;;;;;16.99;100.00;151922.19;1723106;83;20196;-62
2022/06/24 00:04:28;;;;;;;;;;;;;;;16.99;100.00;151922.19;1704000;83;20172;-62
2022/06/24 00:06:56;;;;;;;;;;;;;;;17.01;100.00;151927.41;1723556;83;20469;-62
2022/06/24 00:09:28;;;;;;;;;;;;;;;17.05;100.00;151937.81;1723516;83;21093;-62
2022/06/24 00:12:07;;;;;;;;;;;;;;;17.09;100.00;151948.23;1722143;83;20176;-62
2022/06/24 00:14:34;;;;;;;;;;;;;;;17.11;100.00;151953.45;1723500;83;20180;-62
2022/06/24 00:17:05;;;;;;;;;;;;;;;17.13;100.00;151958.70;1722876;83;20157;-62
2022/06/24 00:19:34;;;;;;;;;;;;;;;17.14;100.00;151961.31;1723541;83;20171;-62
2022/06/24 00:22:09;;;;;;;;;;;;;;;17.14;100.00;151959.98;1714299;83;21245;-62
2022/06/24 00:24:36;;;;;;;;;;;;;;;17.12;100.00;151956.05;1711994;83;20221;-63
2022/06/24 00:27:05;;;;;;;;;;;;;;;17.13;100.00;151957.38;1711664;83;20203;-63
2022/06/24 00:29:32;;;;;;;;;;;;;;;17.14;100.00;151959.98;1686671;83;20225;-63
2022/06/24 00:32:02;;;;;;;;;;;;;;;17.15;100.00;151962.59;1713079;83;20169;-63
2022/06/24 00:34:29;;;;;;;;;;;;;;;17.16;100.00;151966.52;1713104;83;21151;-62
2022/06/24 00:36:56;;;;;;;;;;;;;;;17.16;100.00;151966.52;1711531;83;20434;-62
2022/06/24 00:39:33;;;;;;;;;;;;;;;17.17;100.00;151969.13;1712831;83;20218;-62
2022/06/24 00:42:01;;;;;;;;;;;;;;;17.16;100.00;151966.52;1712141;83;20168;-62
2022/06/24 00:44:34;;;;;;;;;;;;;;;17.16;100.00;151966.52;1713284;83;20169;-62
2022/06/24 00:47:01;;;;;;;;;;;;;;;17.20;100.00;151975.61;1711750;83;22167;-62
2022/06/24 00:49:28;;;;;;;;;;;;;;;17.19;100.00;151973.00;1711478;83;20367;-63
2022/06/24 00:51:55;;;;;;;;;;;;;;;17.21;100.00;151976.94;1712780;83;20165;-63
2022/06/24 00:54:22;;;;;;;;;;;;;;;17.20;100.00;151974.33;1713209;83;20213;-62
2022/06/24 00:56:55;;;;;;;;;;;;;;;17.18;100.00;151971.73;1738335;82;20149;-63
2022/06/24 00:59:23;;;;;;;;;;;;;;;17.18;100.00;151970.41;1723769;83;21083;-62
2022/06/24 01:01:50;;;;;;;;;;;;;;;17.16;100.00;151966.52;1723537;83;20156;-62
2022/06/24 01:04:16;;;;;;;;;;;;;;;17.14;100.00;151961.31;1723535;83;20164;-63
2022/06/24 01:06:44;;;;;;;;;;;;;;;17.14;100.00;151961.31;1723360;83;20272;-62
2022/06/24 01:09:11;;;;;;;;;;;;;;;17.15;100.00;151963.92;1723522;83;20176;-62
2022/06/24 01:11:41;;;;;;;;;;;;;;;17.15;100.00;151963.92;1723379;83;21182;-62
2022/06/24 01:14:08;;;;;;;;;;;;;;;17.18;100.00;151971.73;1723059;83;20372;-62
2022/06/24 01:16:35;;;;;;;;;;;;;;;17.23;100.00;151982.16;1723565;83;20188;-62
2022/06/24 01:19:06;;;;;;;;;;;;;;;17.25;100.00;151987.36;1723272;83;20449;-62
2022/06/24 01:21:43;;;;;;;;;;;;;;;17.28;100.00;151995.17;1734343;82;20170;-62
2022/06/24 01:24:18;;;;;;;;;;;;;;;17.28;100.00;151995.17;1740789;82;21288;-62
2022/06/24 01:26:49;;;;;;;;;;;;;;;17.29;100.00;151997.78;1741030;82;20463;-62
2022/06/24 01:29:17;;;;;;;;;;;;;;;17.31;100.00;152003.00;1741111;82;20171;-62
2022/06/24 01:31:45;;;;;;;;;;;;;;;17.31;100.00;152003.00;1713128;83;20142;-62
2022/06/24 01:34:11;;;;;;;;;;;;;;;17.32;100.00;152005.59;1712463;83;20446;-62
2022/06/24 01:36:38;;;;;;;;;;;;;;;17.34;100.00;152010.81;1714144;83;20646;-62
2022/06/24 01:39:05;;;;;;;;;;;;;;;17.36;100.00;152016.06;1712227;83;20421;-62
2022/06/24 01:41:32;;;;;;;;;;;;;;;17.37;100.00;152017.34;1712571;83;20180;-62
2022/06/24 01:43:59;;;;;;;;;;;;;;;17.38;100.00;152021.28;1711072;83;20578;-61
2022/06/24 01:46:26;;;;;;;;;;;;;;;17.39;100.00;152023.89;1710979;83;20204;-61
2022/06/24 01:48:53;;;;;;;;;;;;;;;17.38;100.00;152021.28;1740717;82;21255;-62
2022/06/24 01:51:20;;;;;;;;;;;;;;;17.39;100.00;152023.89;1710500;83;20203;-63
2022/06/24 01:53:47;;;;;;;;;;;;;;;17.41;100.00;152027.77;1711853;83;20232;-63
2022/06/24 01:56:14;;;;;;;;;;;;;;;17.43;100.00;152032.98;1689395;83;20145;-61
2022/06/24 01:58:41;;;;;;;;;;;;;;;17.45;100.00;152038.19;1706773;84;20197;-61
2022/06/24 02:01:07;;;;;;;;;;;;;;;17.47;100.00;152043.45;1688622;85;21232;-61
2022/06/24 02:03:34;;;;;;;;;;;;;;;17.53;100.00;152057.75;1688483;85;20442;-61
2022/06/24 02:06:04;;;;;;;;;;;;;;;17.58;100.00;152070.83;1688657;83;20143;-62
2022/06/24 02:08:32;;;;;;;;;;;;;;;17.62;100.00;152081.25;1688594;85;20201;-62
2022/06/24 02:13:45;;;;;;;;;;;;;;;17.68;100.00;152096.89;1688516;85;21234;-62
2022/06/24 02:16:12;;;;;;;;;;;;;;;17.68;100.00;152096.89;1688504;85;20126;-62
2022/06/24 02:18:38;;;;;;;;;;;;;;;17.68;100.00;152096.89;1688540;84;20454;-62
2022/06/24 02:21:05;;;;;;;;;;;;;;;17.70;100.00;152102.09;1688624;84;20160;-62
2022/06/24 02:23:32;;;;;;;;;;;;;;;17.73;100.00;152109.92;1647664;86;20165;-62
2022/06/24 02:25:59;;;;;;;;;;;;;;;17.78;100.00;152120.34;1688604;84;21124;-62
2022/06/24 02:28:25;;;;;;;;;;;;;;;17.79;100.00;152122.95;1688473;84;20474;-62
2022/06/24 02:30:55;;;;;;;;;;;;;;;17.80;100.00;152125.61;1688444;85;20138;-62
2022/06/24 02:33:21;;;;;;;;;;;;;;;17.81;100.00;152129.48;1688288;84;20646;-62
2022/06/24 02:35:48;;;;;;;;;;;;;;;17.81;99.90;152129.48;1688691;85;20238;-61
2022/06/24 02:38:15;;;;;;;;;;;;;;;17.81;100.00;152129.48;1688633;85;21247;-62
2022/06/24 02:40:45;;;;;;;;;;;;;;;17.84;99.67;152136.03;1688282;85;20217;-60
2022/06/24 02:43:19;;;;;;;;;;;;;;;17.82;99.48;152130.81;1688454;84;20188;-61
2022/06/24 02:45:53;;;;;;;;;;;;;;;17.82;99.46;152130.81;1688574;85;20173;-61
2022/06/24 02:48:21;;;;;;;;;;;;;;;17.84;99.08;152136.03;1688624;84;20438;-61
2022/06/24 02:50:52;;;;;;;;;;;;;;;17.84;98.98;152136.03;1688427;85;20927;-61
2022/06/24 02:53:19;;;;;;;;;;;;;;;17.86;98.84;152141.25;1688530;85;20193;-61
2022/06/24 02:55:48;;;;;;;;;;;;;;;17.89;98.55;152149.06;1703742;83;20178;-61
2022/06/24 02:58:15;;;;;;;;;;;;;;;17.91;98.18;152154.28;1721505;82;20180;-61
2022/06/24 03:00:42;;;;;;;;;;;;;;;17.93;97.89;152159.48;1723367;83;20165;-61
2022/06/24 03:03:10;;;;;;;;;;;;;;;17.97;97.56;152168.63;1723533;83;21230;-61
2022/06/24 03:05:36;;;;;;;;;;;;;;;18.02;97.17;152183.03;1723350;83;20181;-60
2022/06/24 03:08:04;;;;;;;;;;;;;;;18.04;96.67;152186.92;1722721;83;20169;-60
2022/06/24 03:10:30;;;;;;;;;;;;;;;18.07;96.31;152193.47;1722134;83;20460;-60
2022/06/24 03:12:58;;;;;;;;;;;;;;;18.09;95.91;152198.69;1722552;83;20153;-61
2022/06/24 03:15:25;;;;;;;;;;;;;;;18.10;95.45;152202.56;1723501;83;21123;-62
2022/06/24 03:17:52;;;;;;;;;;;;;;;18.14;95.17;152211.72;1723282;83;20405;-62
2022/06/24 03:20:19;;;;;;;;;;;;;;;18.13;94.82;152209.11;1721944;83;20204;-61
2022/06/24 03:22:45;;;;;;;;;;;;;;;18.14;94.53;152211.72;1713847;83;20138;-61
2022/06/24 03:25:12;;;;;;;;;;;;;;;18.12;94.37;152207.78;1740860;82;20163;-61
2022/06/24 03:27:39;;;;;;;;;;;;;;;18.16;94.23;152218.25;1713401;83;21234;-62
2022/06/24 03:30:07;;;;;;;;;;;;;;;18.17;93.69;152219.53;1712773;83;20478;-61
2022/06/24 03:32:34;;;;;;;;;;;;;;;18.18;93.53;152222.14;1712825;83;20156;-60
2022/06/24 03:35:03;;;;;;;;;;;;;;;18.19;93.15;152224.75;1740964;82;20805;-61
2022/06/24 03:37:30;;;;;;;;;;;;;;;18.18;93.01;152223.47;1740815;82;20411;-61
2022/06/24 03:39:57;;;;;;;;;;;;;;;18.20;92.88;152227.36;1713118;83;21867;-62
2022/06/24 03:42:23;;;;;;;;;;;;;;;18.22;92.71;152232.56;1714037;83;20322;-61
2022/06/24 03:44:50;;;;;;;;;;;;;;;18.23;92.27;152235.17;1712411;83;20165;-62
2022/06/24 03:47:17;;;;;;;;;;;;;;;18.23;91.97;152235.17;1711887;83;20469;-61
2022/06/24 03:49:44;;;;;;;;;;;;;;;18.23;91.74;152235.17;1711445;83;20170;-61
2022/06/24 03:52:11;;;;;;;;;;;;;;;18.23;91.63;152235.17;1713076;83;21301;-61
2022/06/24 03:54:37;;;;;;;;;;;;;;;18.24;91.34;152237.83;1712683;83;20516;-61
2022/06/24 03:57:05;;;;;;;;;;;;;;;18.26;91.04;152241.72;1714507;82;20200;-62
2022/06/24 03:59:32;;;;;;;;;;;;;;;18.29;90.72;152249.53;1723378;83;20180;-62
2022/06/24 04:01:59;;;;;;;;;;;;;;;18.30;90.45;152253.47;1723590;83;20142;-62
2022/06/24 04:04:25;;;;;;;;;;;;;;;18.30;90.25;152253.47;1723610;83;21235;-62
2022/06/24 04:06:52;;;;;;;;;;;;;;;18.31;90.16;152254.75;1723693;83;20165;-62
2022/06/24 04:09:19;;;;;;;;;;;;;;;18.31;90.29;152256.08;1723518;83;20176;-62
2022/06/24 04:11:46;;;;;;;;;;;;;;;18.36;89.94;152266.50;1723782;83;20367;-62
2022/06/24 04:14:13;;;;;;;;;;;;;;;18.37;89.79;152270.44;1723560;83;20181;-61
2022/06/24 04:16:40;;;;;;;;;;;;;;;18.45;89.83;152291.30;1723483;83;21859;-61
2022/06/24 04:19:08;;;;;;;;;;;;;;;18.54;89.20;152313.48;1723505;83;20168;-61
2022/06/24 04:21:35;;;;;;;;;;;;;;;18.62;88.85;152333.06;1716814;83;20182;-61
2022/06/24 04:24:01;;;;;;;;;;;;;;;18.67;87.85;152346.09;1713043;83;20386;-61
2022/06/24 04:26:28;;;;;;;;;;;;;;;18.64;87.04;152336.95;1712133;83;20176;-61
2022/06/24 04:28:55;;;;;;;;;;;;;;;18.58;87.32;152323.91;1712341;83;21973;-62
2022/06/24 04:31:22;;;;;;;;;;;;;;;18.62;87.11;152333.06;1712964;83;20429;-62
2022/06/24 04:33:49;;;;;;;;;;;;;;;18.66;86.63;152342.16;1713272;83;20465;-62
2022/06/24 04:36:15;;;;;;;;;;;;;;;18.69;86.52;152351.31;1712207;83;20165;-61
2022/06/24 04:38:42;;;;;;;;;;;;;;;18.78;86.41;152372.17;1713328;83;20142;-62
2022/06/24 04:41:16;;;;;;;;;;;;;;;18.84;86.07;152389.16;1712994;83;22149;-62
2022/06/24 04:43:43;;;;;;;;;;;;;;;18.92;85.91;152407.45;1713437;83;20152;-61
2022/06/24 04:46:09;;;;;;;;;;;;;;;18.99;85.22;152425.77;1712537;83;20224;-62
2022/06/24 04:48:36;;;;;;;;;;;;;;;19.02;84.82;152433.59;1713451;83;20204;-62
2022/06/24 04:51:03;;;;;;;;;;;;;;;19.08;84.41;152449.23;1714000;83;20177;-63
2022/06/24 04:53:30;;;;;;;;;;;;;;;19.11;84.02;152457.06;1714247;83;21233;-62
2022/06/24 04:55:59;;;;;;;;;;;;;;;19.12;83.93;152459.72;1714476;83;20177;-63
2022/06/24 04:58:26;;;;;;;;;;;;;;;19.14;83.85;152464.94;1741118;82;20186;-63
2022/06/24 05:00:52;;;;;;;;;;;;;;;19.15;83.82;152467.55;1740991;82;20616;-63
2022/06/24 05:03:19;;;;;;;;;;;;;;;19.15;83.67;152467.55;1741052;82;20218;-63
2022/06/24 05:05:46;;;;;;;;;;;;;;;19.15;83.49;152467.55;1741399;82;21261;-61
2022/06/24 05:08:14;;;;;;;;;;;;;;;19.13;83.28;152462.33;1741054;82;20226;-61
2022/06/24 05:10:41;;;;;;;;;;;;;;;19.11;83.34;152457.06;1740960;82;20562;-62
2022/06/24 05:13:09;;;;;;;;;;;;;;;19.18;83.34;152474.03;1740951;82;20567;-62
2022/06/24 05:15:35;;;;;;;;;;;;;;;19.21;83.02;152480.59;1741176;82;20150;-62
2022/06/24 05:18:03;;;;;;;;;;;;;;;19.23;82.97;152487.13;1740835;82;21804;-62
2022/06/24 05:20:31;;;;;;;;;;;;;;;19.29;82.59;152502.78;1741516;82;20202;-62
2022/06/24 05:22:57;;;;;;;;;;;;;;;19.27;82.20;152496.23;1712646;83;20166;-62
2022/06/24 05:25:24;;;;;;;;;;;;;;;19.24;82.51;152488.41;1712614;83;20154;-62
2022/06/24 05:27:51;;;;;;;;;;;;;;;19.27;82.52;152496.23;1712406;83;20165;-61
2022/06/24 05:30:18;;;;;;;;;;;;;;;19.25;82.28;152492.34;1713438;83;21213;-62
2022/06/24 05:32:44;;;;;;;;;;;;;;;19.24;82.59;152488.41;1740869;82;20499;-62
2022/06/24 05:35:11;;;;;;;;;;;;;;;19.26;82.78;152493.63;1741147;82;20114;-63
2022/06/24 05:37:39;;;;;;;;;;;;;;;19.30;82.83;152504.06;1711251;83;21094;-62
2022/06/24 05:40:10;;;;;;;;;;;;;;;19.30;82.37;152504.06;1711268;83;20168;-62
2022/06/24 05:42:37;;;;;;;;;;;;;;;19.22;82.24;152484.47;1712474;83;21745;-62
2022/06/24 05:45:04;;;;;;;;;;;;;;;19.12;82.68;152458.39;1740819;82;20147;-62
2022/06/24 05:47:34;;;;;;;;;;;;;;;19.11;83.18;152457.06;1740907;82;20211;-62
2022/06/24 05:50:00;;;;;;;;;;;;;;;19.15;82.96;152467.55;1741053;82;20171;-62
2022/06/24 05:55:12;;;;;;;;;;;;;;;19.17;82.83;152472.77;1740746;81;21250;-62
2022/06/24 05:57:39;;;;;;;;;;;;;;;19.20;82.76;152477.97;1747910;80;20450;-63
2022/06/24 06:00:07;;;;;;;;;;;;;;;19.30;82.67;152504.06;1740805;82;20553;-63
2022/06/24 06:02:34;;;;;;;;;;;;;;;19.49;82.47;152551.06;1740967;82;20564;-64
2022/06/24 06:05:01;;;;;;;;;;;;;;;19.68;81.90;152600.69;1747883;80;20191;-63
2022/06/24 06:07:28;;;;;;;;;;;;;;;19.84;80.61;152639.87;1744542;80;21129;-63
2022/06/24 06:09:56;;;;;;;;;;;;;;;19.84;79.71;152641.16;1742296;80;20167;-64
2022/06/24 06:12:23;;;;;;;;;;;;;;;19.84;79.77;152639.87;1740326;81;20175;-63
2022/06/24 06:14:49;;;;;;;;;;;;;;;19.85;79.65;152643.77;1740931;82;20178;-63
2022/06/24 06:17:16;;;;;;;;;;;;;;;19.90;79.41;152655.53;1741248;80;20422;-63
2022/06/24 06:19:43;;;;;;;;;;;;;;;19.98;79.23;152676.47;1742938;80;21821;-64
2022/06/24 06:22:10;;;;;;;;;;;;;;;20.11;79.24;152707.83;1744206;80;20240;-64
2022/06/24 06:24:38;;;;;;;;;;;;;;;20.27;78.46;152749.64;1714707;81;20390;-64
2022/06/24 06:27:05;;;;;;;;;;;;;;;20.39;77.80;152779.69;1714844;81;20450;-63
2022/06/24 06:29:32;;;;;;;;;;;;;;;20.42;77.39;152787.52;1714768;81;20187;-65
2022/06/24 06:31:59;;;;;;;;;;;;;;;20.45;77.13;152794.06;1712596;82;21738;-64
2022/06/24 06:34:26;;;;;;;;;;;;;;;20.41;76.81;152783.58;1713894;82;20383;-64
2022/06/24 06:36:53;;;;;;;;;;;;;;;20.34;77.33;152766.63;1714331;82;20194;-65
2022/06/24 06:39:19;;;;;;;;;;;;;;;20.37;77.37;152773.14;1714842;81;20141;-64
2022/06/24 06:41:46;;;;;;;;;;;;;;;20.35;76.76;152767.91;1709365;81;20174;-65
2022/06/24 06:44:15;;;;;;;;;;;;;;;20.30;76.91;152757.47;1713876;82;21213;-65
2022/06/24 06:46:42;;;;;;;;;;;;;;;20.31;77.26;152760.09;1709027;82;20158;-64
2022/06/24 06:49:09;;;;;;;;;;;;;;;20.38;76.88;152775.75;1711714;82;20193;-64
2022/06/24 06:51:36;;;;;;;;;;;;;;;20.40;76.44;152780.97;1709539;82;20174;-65
2022/06/24 06:54:02;;;;;;;;;;;;;;;20.41;76.09;152783.58;1707993;82;20388;-65
2022/06/24 06:56:29;;;;;;;;;;;;;;;20.45;75.92;152795.34;1714168;81;20735;-65
2022/06/24 06:58:56;;;;;;;;;;;;;;;20.57;75.35;152824.11;1708220;81;20477;-65
2022/06/24 07:01:23;;;;;;;;;;;;;;;20.69;74.65;152854.16;1709623;82;20198;-64
2022/06/24 07:03:49;;;;;;;;;;;;;;;20.74;74.65;152868.50;1711854;82;20644;-63
2022/06/24 07:06:16;;;;;;;;;;;;;;;20.86;74.34;152898.59;1710988;82;20142;-65
2022/06/24 07:08:43;;;;;;;;;;;;;;;20.93;73.53;152914.31;1706711;82;21250;-65
2022/06/24 07:11:09;;;;;;;;;;;;;;;20.89;73.14;152906.48;1710602;82;20150;-63
2022/06/24 07:13:36;;;;;;;;;;;;;;;20.85;72.96;152894.70;1709859;82;20177;-64
2022/06/24 07:16:07;;;;;;;;;;;;;;;20.78;73.25;152877.66;1706133;84;20138;-63
2022/06/24 07:18:33;;;;;;;;;;;;;;;20.85;73.61;152894.70;1709605;82;20218;-64
2022/06/24 07:21:00;;;;;;;;;;;;;;;21.01;73.62;152935.20;1706393;82;21139;-63
2022/06/24 07:23:27;;;;;;;;;;;;;;;21.14;72.51;152969.20;1693077;83;20204;-64
2022/06/24 07:25:58;;;;;;;;;;;;;;;21.22;72.43;152987.48;1723176;82;20210;-64
2022/06/24 07:28:26;;;;;;;;;;;;;;;21.30;71.80;153008.38;1707156;84;20639;-64
2022/06/24 07:30:53;;;;;;;;;;;;;;;21.37;72.05;153025.38;1714858;82;20199;-64
2022/06/24 07:33:19;;;;;;;;;;;;;;;21.45;71.50;153047.61;1729698;82;21126;-64
2022/06/24 07:35:46;;;;;;;;;;;;;;;21.53;71.09;153065.91;1732575;82;20203;-64
2022/06/24 07:38:13;;;;;;;;;;;;;;;21.59;70.99;153081.63;1716475;82;20237;-64
2022/06/24 07:40:39;;;;;;;;;;;;;;;21.66;70.63;153099.95;1736057;81;20136;-63
2022/06/24 07:43:07;;;;;;;;;;;;;;;21.77;70.10;153126.08;1729355;82;20195;-63
2022/06/24 07:45:35;;;;;;;;;;;;;;;21.80;69.87;153135.25;1709136;82;21909;-63
2022/06/24 07:48:02;;;;;;;;;;;;;;;21.86;69.52;153150.94;1716529;82;20199;-63
2022/06/24 07:50:29;;;;;;;;;;;;;;;21.85;69.29;153148.31;1725932;82;20200;-63
2022/06/24 07:52:56;;;;;;;;;;;;;;;21.85;69.57;153148.31;1704957;83;20216;-64
2022/06/24 07:58:09;;;;;;;;;;;;;;;21.82;69.51;153139.19;1727269;82;21309;-63
2022/06/24 08:00:36;;;;;;;;;;;;;;;21.82;69.61;153139.19;1713221;82;20204;-63
2022/06/24 08:03:05;;;;;;;;;;;;;;;21.80;69.56;153135.25;1721229;81;20200;-63
2022/06/24 08:05:32;;;;;;;;;;;;;;;21.74;69.68;153120.86;1754016;80;20171;-63
2022/06/24 08:07:59;;;;;;;;;;;;;;;21.72;70.16;153114.34;1749958;80;20128;-63
2022/06/24 08:10:26;;;;;;;;;;;;;;;21.71;69.82;153111.73;1761727;80;20641;-64
2022/06/24 08:12:53;;;;;;;;;;;;;;;21.67;70.02;153101.28;1746993;80;20863;-63
2022/06/24 08:15:21;;;;;;;;;;;;;;;21.67;70.45;153102.56;1753375;80;20191;-63
2022/06/24 08:17:48;;;;;;;;;;;;;;;21.77;70.36;153126.08;1751363;80;20383;-63
2022/06/24 08:20:15;;;;;;;;;;;;;;;21.85;70.10;153147.03;1721639;81;20185;-63
2022/06/24 08:22:42;;;;;;;;;;;;;;;21.93;69.13;153167.94;1738045;82;21240;-62
2022/06/24 08:25:08;;;;;;;;;;;;;;;21.98;68.26;153179.72;1698202;83;20140;-63
2022/06/24 08:27:35;;;;;;;;;;;;;;;21.96;68.26;153175.78;1772693;80;20202;-63
2022/06/24 08:30:03;;;;;;;;;;;;;;;22.06;68.16;153199.34;1763264;80;20183;-63
2022/06/24 08:32:30;;;;;;;;;;;;;;;22.13;67.82;153217.63;1770133;80;20172;-63
2022/06/24 08:34:57;;;;;;;;;;;;;;;22.15;67.50;153222.86;1761498;80;21236;-63
2022/06/24 08:37:24;;;;;;;;;;;;;;;22.17;67.58;153228.09;1749197;82;20463;-64
2022/06/24 08:39:50;;;;;;;;;;;;;;;22.18;67.51;153232.03;1755868;80;20655;-64
2022/06/24 08:42:17;;;;;;;;;;;;;;;22.18;67.51;153232.03;1760944;80;20507;-63
2022/06/24 08:44:44;;;;;;;;;;;;;;;22.21;67.43;153238.53;1763761;80;20210;-63
2022/06/24 08:47:17;;;;;;;;;;;;;;;22.22;67.63;153241.20;1763128;80;21133;-62
2022/06/24 08:49:44;;;;;;;;;;;;;;;22.26;67.75;153251.66;1723008;80;20297;-62
2022/06/24 08:52:12;;;;;;;;;;;;;;;22.26;67.17;153251.66;1768007;80;20246;-62
2022/06/24 08:54:41;;;;;;;;;;;;;;;22.20;67.59;153235.92;1768747;80;20551;-63
2022/06/24 08:57:08;;;;;;;;;;;;;;;22.26;67.68;153250.33;1742307;80;20187;-62
2022/06/24 08:59:35;;;;;;;;;;;;;;;22.26;67.25;153250.33;1732711;82;21152;-63
2022/06/24 09:02:03;;;;;;;;;;;;;;;22.24;67.18;153246.44;1732796;82;20192;-63
2022/06/24 09:04:33;;;;;;;;;;;;;;;22.19;67.50;153233.31;1734625;81;20449;-62
2022/06/24 09:07:01;;;;;;;;;;;;;;;22.21;67.38;153237.25;1757230;81;20161;-63
2022/06/24 09:09:29;;;;;;;;;;;;;;;22.20;67.38;153235.92;1758914;81;20176;-64
2022/06/24 09:11:57;;;;;;;;;;;;;;;22.30;67.48;153262.11;1738915;81;22912;-63
2022/06/24 09:14:45;;;;;;;;;;;;;;;22.43;67.17;153294.80;1757599;81;20168;-63
2022/06/24 09:17:12;;;;;;;;;;;;;;;22.53;66.52;153319.70;1707527;83;20455;-63
2022/06/24 09:19:39;;;;;;;;;;;;;;;22.63;66.32;153344.56;1688235;83;20138;-63
2022/06/24 09:22:06;;;;;;;;;;;;;;;22.70;65.82;153362.86;1654515;85;20509;-63
2022/06/24 09:24:47;;;;;;;;;;;;;;;22.78;65.33;153382.50;1666683;84;21151;-63
2022/06/24 09:27:16;;;;;;;;;;;;;;;22.83;64.89;153395.56;1664002;84;20153;-63
2022/06/24 09:29:48;;;;;;;;;;;;;;;22.89;65.08;153411.30;1663278;84;20634;-63
2022/06/24 09:32:15;;;;;;;;;;;;;;;22.98;64.61;153432.22;1688543;83;20215;-64
2022/06/24 09:35:07;;;;;;;;;;;;;;;23.11;64.36;153466.25;1716101;83;20138;-63
2022/06/24 09:37:41;;;;;;;;;;;;;;;23.25;63.60;153500.25;1713642;82;21147;-63
2022/06/24 09:40:25;;;;;;;;;;;;;;;23.30;62.73;153514.72;1706064;82;20189;-63
2022/06/24 09:43:00;;;;;;;;;;;;;;;23.29;62.72;153510.77;1698198;83;20166;-63
2022/06/24 09:45:33;;;;;;;;;;;;;;;23.38;62.25;153534.34;1716781;82;20399;-63
2022/06/24 09:48:00;;;;;;;;;;;;;;;23.42;61.60;153544.81;1712995;83;20144;-63
2022/06/24 09:50:27;;;;;;;;;;;;;;;23.38;61.61;153534.34;1715522;83;21238;-63
2022/06/24 09:52:54;;;;;;;;;;;;;;;23.37;61.69;153530.39;1714103;82;20456;-63
2022/06/24 09:55:20;;;;;;;;;;;;;;;23.38;61.83;153534.34;1723439;83;20507;-63
2022/06/24 09:57:47;;;;;;;;;;;;;;;23.50;61.13;153563.11;1708594;81;20795;-63
2022/06/24 10:03:01;;;;;;;;;;;;;;;23.69;59.93;153612.86;1727181;82;21031;-65
2022/06/24 10:05:28;;;;;;;;;;;;;;;23.66;59.90;153605.02;1725422;82;20486;-65
2022/06/24 10:07:55;;;;;;;;;;;;;;;23.70;60.88;153615.47;1711729;83;20187;-64
2022/06/24 10:10:23;;;;;;;;;;;;;;;23.87;59.90;153657.38;1728136;82;20480;-64
2022/06/24 10:12:50;;;;;;;;;;;;;;;23.90;60.00;153665.22;1712234;83;20183;-65
2022/06/24 10:15:18;;;;;;;;;;;;;;;23.97;59.79;153683.53;1711462;83;21234;-64
2022/06/24 10:17:46;;;;;;;;;;;;;;;23.99;59.51;153688.81;1712185;83;20408;-64
2022/06/24 10:20:13;;;;;;;;;;;;;;;24.00;59.29;153691.44;1713605;82;20187;-65
2022/06/24 10:22:44;;;;;;;;;;;;;;;24.03;59.17;153698.00;1730364;83;20195;-64
2022/06/24 10:25:11;;;;;;;;;;;;;;;23.97;59.58;153683.53;1690666;84;20201;-64
2022/06/24 10:28:00;;;;;;;;;;;;;;;24.02;59.50;153696.72;1688149;85;21194;-64
2022/06/24 10:30:47;;;;;;;;;;;;;;;24.06;59.35;153704.56;1729947;82;20171;-64
2022/06/24 10:33:14;;;;;;;;;;;;;;;24.22;58.36;153746.47;1730463;83;20198;-64
2022/06/24 10:36:05;;;;;;;;;;;;;;;24.29;57.22;153764.78;1688146;84;21439;-64
2022/06/24 10:38:40;;;;;;;;;;;;;;;24.26;56.90;153755.61;1688333;85;20185;-64
2022/06/24 10:41:12;;;;;;;;;;;;;;;24.24;56.43;153750.38;1692300;83;21243;-64
2022/06/24 10:43:41;;;;;;;;;;;;;;;24.21;56.69;153742.53;1695874;83;20449;-64
2022/06/24 10:46:16;;;;;;;;;;;;;;;24.19;57.29;153738.58;1748150;81;20207;-64
2022/06/24 10:48:55;;;;;;;;;;;;;;;24.28;58.17;153762.17;1740877;81;20179;-65
2022/06/24 10:51:22;;;;;;;;;;;;;;;24.47;58.31;153809.33;1735214;81;20174;-64
2022/06/24 10:54:10;;;;;;;;;;;;;;;24.52;58.16;153822.41;1701841;83;21132;-65
2022/06/24 10:56:50;;;;;;;;;;;;;;;24.46;58.61;153807.98;1697830;83;20186;-65
2022/06/24 10:59:19;;;;;;;;;;;;;;;24.47;59.06;153809.33;1700144;83;20182;-65
2022/06/24 11:01:47;;;;;;;;;;;;;;;24.51;59.25;153819.78;1743170;81;20153;-65
2022/06/24 11:04:28;;;;;;;;;;;;;;;24.57;59.13;153834.20;1757465;81;20172;-64
2022/06/24 11:07:11;;;;;;;;;;;;;;;24.64;58.78;153851.19;1745729;81;21035;-66
2022/06/24 11:09:38;;;;;;;;;;;;;;;24.61;58.46;153845.95;1759801;81;20141;-65
2022/06/24 11:12:08;;;;;;;;;;;;;;;24.51;58.70;153818.45;1712439;83;20463;-65
2022/06/24 11:14:34;;;;;;;;;;;;;;;24.48;58.87;153811.94;1710984;83;20212;-65
2022/06/24 11:17:08;;;;;;;;;;;;;;;24.52;59.03;153822.41;1741008;81;20141;-66
2022/06/24 11:19:41;;;;;;;;;;;;;;;24.62;58.25;153847.30;1742187;81;21207;-65
2022/06/24 11:22:07;;;;;;;;;;;;;;;24.66;58.23;153856.48;1705083;83;20240;-65
2022/06/24 11:24:36;;;;;;;;;;;;;;;24.80;58.08;153891.89;1744218;81;20189;-65
2022/06/24 11:27:07;;;;;;;;;;;;;;;24.82;57.58;153898.41;1755729;81;20471;-65
2022/06/24 11:29:53;;;;;;;;;;;;;;;24.83;58.13;153901.03;1757849;81;20208;-65
2022/06/24 11:32:20;;;;;;;;;;;;;;;25.01;57.70;153945.56;1701500;83;20602;-64
2022/06/24 11:34:48;;;;;;;;;;;;;;;25.23;56.97;154001.94;1738957;81;20580;-65
2022/06/24 11:37:23;;;;;;;;;;;;;;;25.27;55.67;154011.06;1731434;81;20183;-65
2022/06/24 11:39:54;;;;;;;;;;;;;;;25.16;55.34;153983.55;1752054;81;20180;-65
2022/06/24 11:42:22;;;;;;;;;;;;;;;25.02;55.99;153948.19;1750230;81;20501;-65
2022/06/24 11:44:50;;;;;;;;;;;;;;;25.02;56.64;153949.52;1742083;81;21988;-65
2022/06/24 11:47:16;;;;;;;;;;;;;;;25.13;56.00;153975.69;1730428;83;20199;-65
2022/06/24 11:49:44;;;;;;;;;;;;;;;25.11;55.59;153971.80;1730398;83;20155;-65
2022/06/24 11:52:11;;;;;;;;;;;;;;;25.15;55.90;153982.27;1742296;81;20161;-64
2022/06/24 11:54:37;;;;;;;;;;;;;;;25.27;55.60;154011.06;1701224;84;20153;-65
2022/06/24 11:57:07;;;;;;;;;;;;;;;25.36;55.45;154034.67;1672032;84;21213;-64
2022/06/24 11:59:33;;;;;;;;;;;;;;;25.35;55.10;154032.06;1741569;81;20182;-65
2022/06/24 12:02:00;;;;;;;;;;;;;;;25.35;55.22;154032.06;1744695;81;20501;-65
2022/06/24 12:04:27;;;;;;;;;;;;;;;25.40;54.88;154045.16;1719423;82;20178;-65
2022/06/24 12:06:54;;;;;;;;;;;;;;;25.49;55.04;154067.48;1745837;80;20206;-65
2022/06/24 12:09:22;;;;;;;;;;;;;;;25.63;54.52;154102.86;1748538;80;20172;-65
2022/06/24 12:11:49;;;;;;;;;;;;;;;25.74;53.50;154131.66;1746275;80;20558;-66
2022/06/24 12:14:16;;;;;;;;;;;;;;;25.80;53.29;154144.80;1747231;81;20190;-66
2022/06/24 12:17:08;;;;;;;;;;;;;;;25.83;52.93;154152.66;1742257;80;20139;-65
2022/06/24 12:19:39;;;;;;;;;;;;;;;25.82;52.38;154150.03;1757653;81;20262;-65
2022/06/24 12:22:07;;;;;;;;;;;;;;;25.77;52.40;154136.95;1744919;81;21230;-65
2022/06/24 12:24:36;;;;;;;;;;;;;;;25.74;52.00;154130.38;1751971;80;20438;-65
2022/06/24 12:27:04;;;;;;;;;;;;;;;25.74;52.12;154131.66;1765274;80;20137;-65
2022/06/24 12:29:37;;;;;;;;;;;;;;;25.77;52.00;154136.95;1762977;80;20158;-63
2022/06/24 12:32:05;;;;;;;;;;;;;;;25.83;51.70;154152.66;1764683;80;20180;-65
2022/06/24 12:34:33;;;;;;;;;;;;;;;25.87;51.54;154163.14;1731386;81;21139;-65
2022/06/24 12:37:03;;;;;;;;;;;;;;;25.91;50.90;154173.61;1751113;81;20171;-65
2022/06/24 12:39:32;;;;;;;;;;;;;;;25.90;50.66;154171.00;1742217;80;20221;-64
2022/06/24 12:41:59;;;;;;;;;;;;;;;25.96;50.46;154185.42;1745955;80;20173;-65
2022/06/24 12:44:42;;;;;;;;;;;;;;;25.98;50.28;154190.66;1724298;81;20205;-65
2022/06/24 12:52:44;;;;;;;;;;;;;;;26.08;50.36;154215.56;1730160;80;20146;-65
2022/06/24 12:55:13;;;;;;;;;;;;;;;26.15;50.46;154233.91;1764521;80;20434;-66
2022/06/24 12:57:41;;;;;;;;;;;;;;;26.17;50.53;154239.19;1749586;80;20151;-66
2022/06/24 13:00:10;;;;;;;;;;;;;;;26.24;50.24;154257.58;1757823;80;21312;-66